KPOF/POF METAR and TAF weather

Enter ICAO airport designator
Station Type Date Time Source
KPOF METAR 2022/12/04 03:53 UTC NOAA

KPOF 040353Z AUTO 04004KT 10SM CLR M01/M06 A3047 RMK AO2 SLP323 T10061056


Station Type Date Time Source
KPOF Decoded METAR 2022/12/04 03:53 UTC NOAA

POPLAR BLUFF MUN AIRPORT, MO, United States (KPOF) 36-46N 090-19W 100M
Dec 03, 2022 - 10:53 PM EST / 2022.12.04 0353 UTC
Wind: from the NE (040 degrees) at 5 MPH (4 KT):0
Visibility: 10 mile(s):0
Sky conditions: clear
Temperature: 30.9 F (-0.6 C)
Windchill: 26 F (-3 C):1
Dew Point: 21.9 F (-5.6 C)
Relative Humidity: 68%
Pressure (altimeter): 30.47 in. Hg (1031 hPa)
ob: KPOF 040353Z AUTO 04004KT 10SM CLR M01/M06 A3047 RMK AO2 SLP323 T10061056
cycle: 4

Station Type Date Time Source
KPOF TAF UTC NOAA

Error!

Example: see airport list